Latest Coastal Weather Observations for Cape Leeuwin

IDW60701

Issued at 9:15 pm WST Wednesday 30 July 2014 (issued every 10 minutes, with the page automatically refreshed every 10 minutes)

About coastal observations | Map of coastal stations | Coastal observations for WA | Marine services | Other Formats
Station Details ID: 009518 Name: CAPE LEEUWIN Lat: -34.37 Lon: 115.14 Height: 13.0 m
Data from the previous 72 hours. | See also: Recent months at Cape Leeuwin
Date/Time
WST
Temp

°C
Wind Pressure Rain
since 9am
mm
Weather Cloud Vis
km
Sea
Height
m
Swell
Dir
 
Speed
knots
Gust
knots
hPa Trend Height
m
Period
s
Dir
30/09:00pm 14.0 SW 25 33 1022.2 - 0.0 - - - - - - -
30/08:30pm 14.6 SW 28 34 1021.8 - 0.0 - - - - - - -
30/08:00pm 14.6 WSW 26 34 1021.2 - 0.0 - - - - - - -
30/07:30pm 15.0 WSW 25 29 1020.9 - 0.0 - - - - - - -
30/07:00pm 15.1 WSW 23 27 1020.6 - 0.0 - - - - - - -
30/06:30pm 14.9 WSW 24 29 1020.3 - 0.0 - - - - - - -
30/06:00pm 15.6 W 23 29 1020.2 - 0.0 - - - - - - -
30/05:30pm 15.8 W 24 29 1020.0 - 0.0 - - - - - - -
30/05:00pm 16.0 W 25 30 1019.7 - 0.0 - - - - - - -
30/04:30pm 16.1 W 25 31 1019.6 - 0.0 - - - - - - -
30/04:00pm 16.3 W 26 30 1019.5 - 0.0 - - - - - - -
30/03:30pm 16.3 W 27 31 1019.3 - 0.0 - - - - - - -
30/03:00pm 16.3 W 28 33 1018.9 - 0.0 - - - - - - -
30/02:30pm 16.6 W 23 29 1018.5 - 0.0 - - - - - - -
30/02:00pm 16.5 W 23 27 1018.5 - 0.0 - - - - - - -
30/01:30pm 16.3 W 23 28 1018.4 - 0.0 - - - - - - -
30/01:00pm 16.2 W 27 32 1018.4 - 0.0 - - - - - - -
30/12:30pm 15.8 W 28 34 1018.4 - 0.0 - - - - - - -
30/12:00pm 16.0 W 24 31 1018.6 - 0.0 - - - - - - -
30/11:30am 16.5 W 28 33 1018.9 - 0.0 - - - - - - -
30/11:00am 17.0 WNW 28 33 1019.0 - 0.0 - - - - - - -
30/10:30am 17.0 W 26 32 1019.2 - 0.0 - - - - - - -
30/10:00am 16.8 W 27 31 1019.2 - 0.0 - - - - - - -
30/09:30am 16.3 WNW 24 31 1018.9 - 0.0 - - - - - - -
30/09:00am 16.0 W 28 34 1018.8 - 0.4 - - - - - - -
30/08:30am 16.0 W 26 30 1018.6 - 0.4 - - - - - - -
30/08:00am 15.7 W 25 32 1018.4 - 0.4 - - - - - - -
30/07:30am 15.0 WNW 29 37 1018.3 - 0.4 - - - - - - -
30/07:23am 15.0 W 26 37 1018.3 - 0.2 - - - - - - -
30/07:00am 15.8 WNW 27 31 1018.4 - 0.0 - - - - - - -
30/06:30am 16.1 WNW 22 27 1018.2 - 0.0 - - - - - - -
30/06:00am 16.4 WNW 26 31 1018.0 - 0.0 - - - - - - -
30/05:30am 16.3 W 28 33 1017.9 - 0.0 - - - - - - -
30/05:00am 16.2 WNW 29 35 1018.2 - 0.0 - - - - - - -
30/04:30am 16.3 W 26 31 1018.0 - 0.0 - - - - - - -
30/04:00am 16.5 WNW 24 30 1018.2 - 0.0 - - - - - - -
30/03:30am 16.5 W 28 35 1018.4 - 0.0 - - - - - - -
30/03:00am 16.5 W 28 33 1018.5 - 0.0 - - - - - - -
30/02:30am 16.7 W 25 28 1018.8 - 0.0 - - - - - - -
30/02:00am 16.8 WNW 27 33 1018.8 - 0.0 - - - - - - -
30/01:30am 16.9 WNW 25 30 1018.9 - 0.0 - - - - - - -
30/01:00am 16.9 WNW 24 29 1019.1 - 0.0 - - - - - - -
30/12:30am 16.8 WNW 22 28 1019.4 - 0.0 - - - - - - -
30/12:00am 16.7 W 27 33 1019.2 - 0.0 - - - - - - -
 
Date/Time
WST
Temp

°C
Wind Pressure Rain
since 9am
mm
Weather Cloud Vis
km
Sea
Height
m
Swell
Dir
 
Speed
knots
Gust
knots
hPa Trend Height
m
Period
s
Dir
29/11:30pm 16.9 WNW 26 31 1019.5 - 0.0 - - - - - - -
29/11:00pm 17.0 W 24 29 1019.7 - 0.0 - - - - - - -
29/10:30pm 17.1 W 24 28 1019.8 - 0.0 - - - - - - -
29/10:00pm 17.2 WNW 25 30 1019.7 - 0.0 - - - - - - -
29/09:30pm 17.0 WNW 24 30 1019.7 - 0.0 - - - - - - -
29/09:00pm 17.0 WNW 23 28 1020.0 - 0.0 - - - - - - -
29/08:30pm 17.1 WNW 24 28 1020.1 - 0.0 - - - - - - -
29/08:00pm 17.1 WNW 24 28 1020.0 - 0.0 - - - - - - -
29/07:30pm 16.9 WNW 25 29 1020.2 - 0.0 - - - - - - -
29/07:00pm 16.9 WNW 25 30 1020.2 - 0.0 - - - - - - -
29/06:30pm 17.0 WNW 23 29 1020.2 - 0.0 - - - - - - -
29/06:00pm 16.8 WNW 26 31 1020.0 - 0.0 - - - - - - -
29/05:30pm 16.7 WNW 25 30 1019.8 - 0.0 - - - - - - -
29/05:00pm 16.5 WNW 22 27 1019.8 - 0.0 - - - - - - -
29/04:30pm 16.8 WNW 21 26 1019.7 - 0.0 - - - - - - -
29/04:00pm 16.9 WNW 19 23 1019.6 - 0.0 - - - - - - -
29/03:30pm 16.6 WNW 20 23 1019.8 - 0.0 - - - - - - -
29/03:00pm 17.1 WNW 21 27 1020.1 - 0.0 - - - - - - -
29/02:30pm 16.6 WNW 21 26 1020.0 - 0.0 - - - - - - -
29/02:00pm 16.8 WNW 23 26 1020.0 - 0.0 - - - - - - -
29/01:30pm 17.1 NW 20 24 1020.0 - 0.0 - - - - - - -
29/01:00pm 16.5 WNW 23 28 1020.1 - 0.0 - - - - - - -
29/12:30pm 17.3 WNW 20 24 1020.4 - 0.0 - - - - - - -
29/12:00pm 17.0 WNW 19 22 1021.0 - 0.0 - - - - - - -
29/11:30am 17.1 WNW 20 24 1021.3 - 0.0 - - - - - - -
29/11:00am 17.0 WNW 21 24 1021.4 - 0.0 - - - - - - -
29/10:30am 17.4 WNW 21 25 1021.6 - 0.0 - - - - - - -
29/10:00am 17.1 WNW 20 24 1021.3 - 0.0 - - - - - - -
29/09:30am 16.9 WNW 19 23 1021.2 - 0.0 - - - - - - -
29/09:00am 16.3 WNW 18 21 1021.0 - 0.0 - - - - - - -
29/08:30am 16.4 WNW 16 20 1020.8 - 0.0 - - - - - - -
29/08:00am 16.2 W 19 24 1020.6 - 0.0 - - - - - - -
29/07:30am 16.4 W 20 22 1020.5 - 0.0 - - - - - - -
29/07:00am 16.3 W 21 26 1020.2 - 0.0 - - - - - - -
29/06:30am 16.1 W 21 25 1020.2 - 0.0 - - - - - - -
29/06:00am 16.1 W 21 25 1020.0 - 0.0 - - - - - - -
29/05:30am 16.1 W 21 25 1019.8 - 0.0 - - - - - - -
29/05:00am 15.9 W 21 24 1019.7 - 0.0 - - - - - - -
29/04:30am 15.9 W 19 22 1019.8 - 0.0 - - - - - - -
29/04:00am 15.9 W 22 25 1019.7 - 0.0 - - - - - - -
29/03:30am 16.1 W 21 24 1019.8 - 0.0 - - - - - - -
29/03:00am 16.4 W 23 26 1019.8 - 0.0 - - - - - - -
29/02:30am 16.4 W 23 27 1019.8 - 0.0 - - - - - - -
29/02:00am 16.3 W 26 29 1019.7 - 0.0 - - - - - - -
29/01:30am 16.6 W 25 30 1019.7 - 0.0 - - - - - - -
29/01:00am 16.6 W 26 31 1019.9 - 0.0 - - - - - - -
29/12:30am 16.4 WNW 25 28 1019.8 - 0.0 - - - - - - -
29/12:00am 16.4 W 24 29 1019.9 - 0.0 - - - - - - -
 
Date/Time
WST
Temp

°C
Wind Pressure Rain
since 9am
mm
Weather Cloud Vis
km
Sea
Height
m
Swell
Dir
 
Speed
knots
Gust
knots
hPa Trend Height
m
Period
s
Dir
28/11:30pm 16.5 W 25 29 1020.0 - 0.0 - - - - - - -
28/11:00pm 16.4 WNW 23 26 1020.2 - 0.0 - - - - - - -
28/10:30pm 16.4 WNW 23 26 1020.0 - 0.0 - - - - - - -
28/10:00pm 16.2 WNW 22 26 1020.1 - 0.0 - - - - - - -
28/09:30pm 16.1 W 22 26 1020.2 - 0.0 - - - - - - -
28/09:00pm 16.3 W 22 27 1020.3 - 0.0 - - - - - - -
28/08:30pm 16.2 W 22 25 1020.5 - 0.0 - - - - - - -
28/08:00pm 16.0 W 23 27 1020.6 - 0.0 - - - - - - -
28/07:30pm 16.3 W 23 27 1020.6 - 0.0 - - - - - - -
28/07:00pm 16.4 W 21 25 1020.3 - 0.0 - - - - - - -
28/06:30pm 16.4 W 24 28 1020.0 - 0.0 - - - - - - -
28/06:00pm 16.4 W 25 29 1019.6 - 0.0 - - - - - - -
28/05:30pm 16.7 W 23 26 1019.4 - 0.0 - - - - - - -
28/05:00pm 16.6 W 23 27 1019.3 - 0.0 - - - - - - -
28/04:30pm 16.7 W 26 31 1019.0 - 0.0 - - - - - - -
28/04:00pm 16.9 W 24 29 1018.9 - 0.0 - - - - - - -
28/03:30pm 17.3 W 25 29 1018.9 - 0.0 - - - - - - -
28/03:00pm 17.0 W 25 30 1018.7 - 0.0 - - - - - - -
28/02:30pm 17.1 W 25 30 1018.8 - 0.0 - - - - - - -
28/02:00pm 17.3 W 24 29 1018.6 - 0.0 - - - - - - -
28/01:30pm 17.0 W 26 30 1018.7 - 0.0 - - - - - - -
28/01:00pm 17.4 W 26 30 1018.9 - 0.0 - - - - - - -
28/12:30pm 16.9 W 26 30 1019.3 - 0.0 - - - - - - -
28/12:00pm 16.9 W 26 31 1019.5 - 0.0 - - - - - - -
28/11:30am 16.9 W 27 32 1019.9 - 0.0 - - - - - - -
28/11:00am 17.0 W 25 29 1019.9 - 0.0 - - - - - - -
28/10:30am 16.9 W 26 30 1019.9 - 0.0 - - - - - - -
28/10:00am 17.0 W 23 28 1019.8 - 0.0 - - - - - - -
28/09:30am 16.4 W 27 31 1019.7 - 0.0 - - - - - - -
28/09:00am 16.3 W 27 31 1019.5 - 1.2 - - - - - - -
28/08:30am 16.0 W 29 34 1019.1 - 1.2 - - - - - - -
28/08:00am 15.7 W 28 34 1018.9 - 1.2 - - - - - - -
28/07:30am 16.1 W 30 34 1018.5 - 1.2 - - - - - - -
28/07:00am 15.8 W 29 35 1018.3 - 1.2 - - - - - - -
28/06:30am 15.8 W 27 32 1018.0 - 1.2 - - - - - - -
28/06:00am 15.5 W 29 37 1017.6 - 1.2 - - - - - - -
28/05:30am 15.5 W 28 33 1017.5 - 1.2 - - - - - - -
28/05:00am 16.0 W 31 39 1017.3 - 1.2 - - - - - - -
28/04:30am 15.6 W 29 35 1017.5 - 1.2 - - - - - - -
28/04:00am 16.2 W 28 33 1017.8 - 1.2 - - - - - - -
28/03:30am 16.0 W 29 35 1017.9 - 1.2 - - - - - - -
28/03:00am 15.9 W 28 35 1017.9 - 1.2 - - - - - - -
28/02:30am 16.1 W 30 37 1018.1 - 1.2 - - - - - - -
28/02:00am 16.2 W 28 34 1018.1 - 1.2 - - - - - - -
28/01:30am 15.9 W 29 34 1018.0 - 1.2 - - - - - - -
28/01:00am 15.7 W 33 38 1018.2 - 1.2 - - - - - - -
28/12:49am 15.5 W 27 38 1018.2 - 1.0 - - - - - - -
28/12:30am 15.7 W 27 33 1018.4 - 1.0 - - - - - - -
28/12:00am 16.1 WNW 30 37 1018.4 - 1.0 - - - - - - -
 
Date/Time
WST
Temp

°C
Wind Pressure Rain
since 9am
mm
Weather Cloud Vis
km
Sea
Height
m
Swell
Dir
 
Speed
knots
Gust
knots
hPa Trend Height
m
Period
s
Dir
27/11:30pm 15.9 W 29 33 1018.7 - 1.0 - - - - - - -
27/11:00pm 15.7 W 29 34 1018.6 - 1.0 - - - - - - -
27/10:46pm 15.5 W 30 40 1018.5 - 1.0 - - - - - - -
27/10:30pm 16.0 WNW 26 30 1018.8 - 1.0 - - - - - - -
27/10:03pm 15.3 WNW 26 36 1018.9 - 1.0 - - - - - - -
27/10:00pm 16.2 WNW 24 29 1019.0 - 0.8 - - - - - - -
27/09:30pm 16.0 WNW 28 34 1019.1 - 0.8 - - - - - - -

Other Formats:

Comma delimited format used in spreadsheet applications
http://www.bom.gov.au/fwo/IDW60701/IDW60701.94601.axf

JavaScript Object Notation format (JSON) in row-major order
http://www.bom.gov.au/fwo/IDW60701/IDW60701.94601.json